Time;durP1;ratioP1;P1;durP2;ratioP2;P2;SDS_P1;SDS_P2;PMS_P1;PMS_P2;Temp;Humidity;BMP_temperature;BMP_pressure;BME280_temperature;BME280_humidity;BME280_pressure;Samples;Min_cycle;Max_cycle;Signal;HPM_P1;HPM_P2
2022/01/21 00:01:21;;;;;;;;;36.00;33.00;;;;;;;;5160823;27;13253;-74
2022/01/21 00:03:47;;;;;;;;;46.33;41.67;;;;;;;;5160801;27;14535;-74
2022/01/21 00:06:12;;;;;;;;;46.67;42.00;;;;;;;;5162296;27;13215;-75
2022/01/21 00:08:39;;;;;;;;;50.00;42.67;;;;;;;;5164570;27;11914;-74
2022/01/21 00:11:04;;;;;;;;;45.67;41.33;;;;;;;;5164172;27;13317;-75
2022/01/21 00:13:36;;;;;;;;;50.00;44.33;;;;;;;;5164014;27;13389;-74
2022/01/21 00:16:03;;;;;;;;;48.33;43.00;;;;;;;;5164604;27;12706;-75
2022/01/21 00:18:28;;;;;;;;;50.00;42.00;;;;;;;;5164230;27;13454;-75
2022/01/21 00:31:49;;;;;;;;;46.00;42.00;;;;;;;;5163513;27;12248;-73
2022/01/21 00:34:15;;;;;;;;;47.67;42.00;;;;;;;;5163464;27;11525;-74
2022/01/21 00:36:40;;;;;;;;;42.00;33.67;;;;;;;;5163451;27;10298;-75
2022/01/21 00:39:05;;;;;;;;;42.67;38.67;;;;;;;;5144339;27;14397;-74
2022/01/21 00:41:35;;;;;;;;;48.00;40.00;;;;;;;;5163464;27;9533;-74
2022/01/21 00:44:00;;;;;;;;;51.33;45.00;;;;;;;;5162990;27;12295;-74
2022/01/21 00:46:26;;;;;;;;;53.67;45.67;;;;;;;;5144284;27;15283;-73
2022/01/21 00:48:51;;;;;;;;;41.00;35.00;;;;;;;;5163934;27;11357;-74
2022/01/21 00:51:16;;;;;;;;;53.33;42.33;;;;;;;;5163748;27;13780;-74
2022/01/21 00:53:41;;;;;;;;;50.33;41.67;;;;;;;;5163859;27;13375;-74
2022/01/21 00:56:07;;;;;;;;;50.00;43.00;;;;;;;;5163815;27;11341;-74
2022/01/21 00:58:32;;;;;;;;;43.33;37.00;;;;;;;;5163720;27;10350;-74
2022/01/21 01:00:57;;;;;;;;;51.00;39.67;;;;;;;;5144511;27;12476;-73
2022/01/21 01:03:23;;;;;;;;;48.33;43.67;;;;;;;;5163365;27;14377;-73
2022/01/21 01:05:51;;;;;;;;;45.00;41.00;;;;;;;;5163283;27;12541;-74
2022/01/21 01:08:16;;;;;;;;;39.00;38.67;;;;;;;;5163490;27;11653;-74
2022/01/21 01:21:22;;;;;;;;;41.33;40.33;;;;;;;;5163221;27;13302;-74
2022/01/21 01:29:12;;;;;;;;;50.67;43.00;;;;;;;;5163238;27;11544;-74
2022/01/21 01:31:37;;;;;;;;;37.33;34.33;;;;;;;;5163405;27;11548;-74
2022/01/21 01:34:03;;;;;;;;;46.67;41.67;;;;;;;;5163017;27;14348;-74
2022/01/21 01:36:29;;;;;;;;;49.67;43.67;;;;;;;;5162810;27;13356;-73
2022/01/21 01:41:30;;;;;;;;;49.00;40.67;;;;;;;;5163170;27;12440;-73
2022/01/21 01:49:34;;;;;;;;;44.00;38.00;;;;;;;;5162620;27;13264;-73
2022/01/21 01:52:00;;;;;;;;;47.00;38.33;;;;;;;;5162290;27;12803;-74
2022/01/21 01:54:27;;;;;;;;;37.67;32.33;;;;;;;;5144026;27;11998;-73
2022/01/21 01:56:53;;;;;;;;;32.00;27.00;;;;;;;;5162746;27;12274;-73
2022/01/21 01:59:19;;;;;;;;;43.00;38.67;;;;;;;;5162285;27;12500;-73
2022/01/21 02:01:52;;;;;;;;;43.33;37.67;;;;;;;;5162020;27;13258;-75
2022/01/21 02:04:17;;;;;;;;;40.00;36.67;;;;;;;;5163013;27;9813;-74
2022/01/21 02:06:42;;;;;;;;;41.00;32.67;;;;;;;;5162439;27;10557;-73
2022/01/21 02:09:08;;;;;;;;;36.67;32.67;;;;;;;;5162291;27;8892;-73
2022/01/21 02:11:33;;;;;;;;;46.00;39.33;;;;;;;;5162456;27;10365;-75
2022/01/21 02:14:01;;;;;;;;;42.00;36.67;;;;;;;;5161737;27;13559;-72
2022/01/21 02:21:39;;;;;;;;;42.33;38.00;;;;;;;;5162226;27;10971;-74
2022/01/21 02:24:08;;;;;;;;;47.33;38.00;;;;;;;;5162519;27;11459;-74
2022/01/21 02:26:34;;;;;;;;;43.00;42.33;;;;;;;;5161948;27;8797;-73
2022/01/21 02:29:01;;;;;;;;;44.00;42.33;;;;;;;;5160989;27;12694;-73
2022/01/21 02:31:27;;;;;;;;;51.67;43.33;;;;;;;;5162161;27;8801;-75
2022/01/21 02:33:52;;;;;;;;;46.33;41.00;;;;;;;;5161556;27;13612;-74
2022/01/21 02:36:17;;;;;;;;;49.00;39.00;;;;;;;;5161475;27;13511;-74
2022/01/21 02:38:43;;;;;;;;;45.00;39.67;;;;;;;;5160900;27;12978;-74
2022/01/21 02:41:08;;;;;;;;;43.67;39.67;;;;;;;;5161252;27;11372;-74
2022/01/21 02:43:34;;;;;;;;;40.33;38.33;;;;;;;;5161399;27;8853;-74
2022/01/21 02:46:04;;;;;;;;;43.33;35.00;;;;;;;;5161539;27;11608;-74
2022/01/21 02:48:29;;;;;;;;;43.33;36.00;;;;;;;;5161747;27;11648;-74
2022/01/21 02:50:55;;;;;;;;;38.33;33.00;;;;;;;;5161771;27;8817;-73
2022/01/21 02:55:48;;;;;;;;;47.33;39.67;;;;;;;;5160662;27;9809;-74
2022/01/21 02:58:13;;;;;;;;;50.00;42.00;;;;;;;;5160897;27;13219;-74
2022/01/21 03:00:39;;;;;;;;;43.00;42.00;;;;;;;;5161383;27;13671;-74
2022/01/21 03:03:04;;;;;;;;;32.67;29.33;;;;;;;;5161967;27;9588;-74
2022/01/21 03:05:30;;;;;;;;;41.00;36.67;;;;;;;;5161432;27;13457;-74
2022/01/21 03:07:55;;;;;;;;;41.67;35.33;;;;;;;;5161591;27;13285;-74
2022/01/21 03:10:21;;;;;;;;;41.33;35.00;;;;;;;;5161285;27;10626;-74
2022/01/21 03:12:47;;;;;;;;;39.33;36.00;;;;;;;;5161342;27;8832;-73
2022/01/21 03:15:12;;;;;;;;;35.67;28.67;;;;;;;;5160791;27;10374;-73
2022/01/21 03:17:37;;;;;;;;;53.67;39.67;;;;;;;;5141680;27;12695;-74
2022/01/21 03:20:03;;;;;;;;;48.00;38.67;;;;;;;;5160588;27;10423;-74
2022/01/21 03:22:29;;;;;;;;;44.67;39.67;;;;;;;;5142733;27;14369;-74
2022/01/21 03:24:54;;;;;;;;;57.75;47.00;;;;;;;;5160997;27;10806;-74
2022/01/21 03:27:19;;;;;;;;;46.67;40.33;;;;;;;;5161284;27;13784;-73
2022/01/21 03:29:45;;;;;;;;;36.00;30.33;;;;;;;;5160846;27;14570;-73
2022/01/21 03:32:10;;;;;;;;;35.33;34.67;;;;;;;;5160684;27;12203;-73
2022/01/21 03:34:36;;;;;;;;;35.00;29.33;;;;;;;;5160722;27;12533;-74
2022/01/21 03:37:01;;;;;;;;;32.67;29.00;;;;;;;;5160764;27;12284;-73
2022/01/21 03:39:27;;;;;;;;;19.00;13.00;;;;;;;;5161242;27;11539;-72
2022/01/21 03:41:52;;;;;;;;;40.67;34.67;;;;;;;;5162685;27;12400;-74
2022/01/21 03:44:17;;;;;;;;;34.00;31.00;;;;;;;;5164551;27;13414;-73
2022/01/21 03:46:42;;;;;;;;;34.00;31.33;;;;;;;;5164232;27;14572;-73
2022/01/21 03:49:09;;;;;;;;;29.00;26.67;;;;;;;;5164314;27;8897;-73
2022/01/21 03:51:34;;;;;;;;;31.67;31.33;;;;;;;;5164270;27;13525;-73
2022/01/21 03:53:59;;;;;;;;;37.33;35.00;;;;;;;;5144984;27;15500;-73
2022/01/21 03:56:24;;;;;;;;;33.33;28.67;;;;;;;;5162362;27;11860;-72
2022/01/21 03:58:50;;;;;;;;;34.00;25.33;;;;;;;;5164750;27;12190;-72
2022/01/21 04:01:16;;;;;;;;;34.00;28.33;;;;;;;;5164857;27;11874;-73
2022/01/21 04:03:41;;;;;;;;;23.00;22.00;;;;;;;;5164634;27;8826;-74
2022/01/21 04:06:06;;;;;;;;;27.67;25.33;;;;;;;;5164619;27;13408;-74
2022/01/21 04:08:32;;;;;;;;;23.33;23.00;;;;;;;;5164138;27;11736;-74
2022/01/21 04:10:57;;;;;;;;;26.67;24.67;;;;;;;;5163705;27;11550;-70
2022/01/21 04:13:23;;;;;;;;;31.67;28.00;;;;;;;;5163852;27;12020;-68
2022/01/21 04:15:50;;;;;;;;;28.00;24.33;;;;;;;;5163255;27;13861;-73
2022/01/21 04:18:16;;;;;;;;;31.33;23.33;;;;;;;;5164138;27;13817;-74
2022/01/21 04:20:42;;;;;;;;;39.67;31.00;;;;;;;;5163444;27;12728;-73
2022/01/21 04:23:08;;;;;;;;;33.33;27.67;;;;;;;;5163992;27;12335;-77
2022/01/21 04:25:33;;;;;;;;;34.00;28.67;;;;;;;;5166102;27;12251;-76
2022/01/21 04:27:59;;;;;;;;;36.33;31.67;;;;;;;;5184341;27;10366;-76
2022/01/21 04:30:24;;;;;;;;;28.33;25.33;;;;;;;;5184935;27;11942;-74
2022/01/21 04:32:49;;;;;;;;;29.67;26.67;;;;;;;;5184641;27;13626;-75
2022/01/21 04:35:15;;;;;;;;;31.00;25.00;;;;;;;;5184639;27;11381;-77
2022/01/21 04:37:48;;;;;;;;;24.33;21.33;;;;;;;;5184429;27;13515;-76
2022/01/21 04:40:16;;;;;;;;;24.33;21.67;;;;;;;;5183559;27;13350;-75
2022/01/21 04:48:09;;;;;;;;;26.33;21.00;;;;;;;;5182313;27;8909;-74
2022/01/21 04:50:53;;;;;;;;;32.33;23.33;;;;;;;;5184089;27;10676;-76
2022/01/21 04:53:18;;;;;;;;;26.33;24.67;;;;;;;;5182145;27;14121;-76
2022/01/21 04:55:44;;;;;;;;;29.00;22.00;;;;;;;;5184047;27;13465;-76
2022/01/21 04:58:09;;;;;;;;;26.33;22.00;;;;;;;;5184296;27;11438;-75
2022/01/21 05:00:34;;;;;;;;;28.67;24.67;;;;;;;;5183882;27;8792;-75
2022/01/21 05:03:00;;;;;;;;;30.33;21.67;;;;;;;;5184068;27;11603;-76
2022/01/21 05:05:25;;;;;;;;;27.00;21.67;;;;;;;;5183481;27;13552;-76
2022/01/21 05:07:52;;;;;;;;;34.33;21.33;;;;;;;;5183998;27;10349;-76
2022/01/21 05:10:20;;;;;;;;;27.00;24.00;;;;;;;;5183208;27;13478;-76
2022/01/21 05:12:45;;;;;;;;;31.00;26.33;;;;;;;;5183423;27;13843;-76
2022/01/21 05:17:48;;;;;;;;;39.00;27.00;;;;;;;;5183591;27;13650;-76
2022/01/21 05:20:14;;;;;;;;;25.67;24.33;;;;;;;;5182206;27;13490;-76
2022/01/21 05:22:39;;;;;;;;;1.00;0.00;;;;;;;;5164650;27;13388;-76
2022/01/21 05:25:05;;;;;;;;;19.67;19.67;;;;;;;;5183624;27;22913;-77
2022/01/21 05:27:30;;;;;;;;;23.33;22.00;;;;;;;;5183013;27;22806;-76
2022/01/21 05:29:56;;;;;;;;;25.00;22.00;;;;;;;;5183308;27;13883;-76
2022/01/21 05:32:21;;;;;;;;;26.67;26.33;;;;;;;;5184068;27;8924;-71
2022/01/21 05:34:46;;;;;;;;;35.00;25.67;;;;;;;;5183294;27;11358;-70
2022/01/21 05:37:12;;;;;;;;;17.00;16.00;;;;;;;;5181670;27;13287;-69
2022/01/21 05:39:37;;;;;;;;;34.33;29.67;;;;;;;;5181766;27;14349;-70
2022/01/21 05:42:04;;;;;;;;;28.33;25.00;;;;;;;;5181181;27;13209;-70
2022/01/21 05:46:59;;;;;;;;;29.67;25.33;;;;;;;;5181961;27;12134;-70
2022/01/21 05:49:26;;;;;;;;;24.33;21.33;;;;;;;;5181776;27;13730;-70
2022/01/21 05:52:02;;;;;;;;;18.67;18.00;;;;;;;;5181802;27;10471;-75
2022/01/21 05:54:27;;;;;;;;;19.67;19.67;;;;;;;;5180071;27;13310;-73
2022/01/21 05:56:53;;;;;;;;;19.67;19.00;;;;;;;;5181624;27;11759;-67
2022/01/21 05:59:18;;;;;;;;;23.67;15.67;;;;;;;;5181777;27;9530;-67
2022/01/21 06:01:44;;;;;;;;;23.67;17.33;;;;;;;;5182192;27;15872;-68
2022/01/21 06:04:09;;;;;;;;;28.67;22.33;;;;;;;;5180869;27;9054;-69
2022/01/21 06:06:35;;;;;;;;;24.67;18.67;;;;;;;;5181917;27;9522;-69
2022/01/21 06:09:01;;;;;;;;;21.00;18.67;;;;;;;;5181285;27;12575;-68
2022/01/21 06:11:26;;;;;;;;;31.67;24.67;;;;;;;;5181441;27;9242;-71
2022/01/21 06:13:51;;;;;;;;;28.00;21.00;;;;;;;;5182003;27;12457;-70
2022/01/21 06:16:17;;;;;;;;;27.67;24.33;;;;;;;;5181677;27;13246;-70
2022/01/21 06:18:43;;;;;;;;;26.33;21.67;;;;;;;;5162060;27;13993;-70
2022/01/21 06:21:08;;;;;;;;;36.00;27.33;;;;;;;;5182360;27;11653;-69
2022/01/21 06:23:34;;;;;;;;;31.67;25.67;;;;;;;;5181492;27;13256;-72
2022/01/21 06:25:59;;;;;;;;;25.00;22.67;;;;;;;;5181184;27;12101;-68
2022/01/21 06:28:25;;;;;;;;;30.00;24.33;;;;;;;;5180760;27;12452;-70
2022/01/21 06:30:50;;;;;;;;;12.33;9.00;;;;;;;;5180581;27;13272;-71
2022/01/21 06:33:16;;;;;;;;;33.67;28.00;;;;;;;;5181546;27;22689;-68
2022/01/21 06:35:41;;;;;;;;;25.33;21.67;;;;;;;;5155734;27;22871;-68
2022/01/21 06:38:07;;;;;;;;;19.00;19.00;;;;;;;;5161758;27;14901;-68
2022/01/21 06:40:32;;;;;;;;;31.33;24.67;;;;;;;;5160910;27;13719;-69
2022/01/21 06:43:03;;;;;;;;;28.00;23.75;;;;;;;;5161401;27;13248;-68
2022/01/21 06:45:29;;;;;;;;;36.50;32.75;;;;;;;;5161060;27;13508;-71
2022/01/21 06:47:54;;;;;;;;;33.25;27.00;;;;;;;;5161069;27;12220;-69
2022/01/21 06:50:19;;;;;;;;;41.00;33.50;;;;;;;;5160754;27;12383;-68
2022/01/21 06:52:44;;;;;;;;;33.00;31.50;;;;;;;;5160613;27;13373;-70
2022/01/21 06:55:10;;;;;;;;;33.67;30.00;;;;;;;;5163596;27;11501;-73
2022/01/21 06:57:39;;;;;;;;;27.67;25.67;;;;;;;;5161212;27;10356;-69
2022/01/21 07:00:08;;;;;;;;;30.00;25.67;;;;;;;;5161266;27;13492;-73
2022/01/21 07:02:34;;;;;;;;;36.50;31.00;;;;;;;;5161738;27;10637;-70
2022/01/21 07:04:59;;;;;;;;;26.00;24.67;;;;;;;;5164912;27;12481;-69
2022/01/21 07:07:24;;;;;;;;;31.50;26.50;;;;;;;;5182738;27;14463;-70
2022/01/21 07:09:50;;;;;;;;;31.50;27.00;;;;;;;;5182089;27;13691;-67
2022/01/21 07:12:15;;;;;;;;;27.67;26.00;;;;;;;;5181429;27;9274;-70
2022/01/21 07:14:40;;;;;;;;;29.33;27.00;;;;;;;;5180570;27;12367;-69
2022/01/21 07:17:06;;;;;;;;;30.33;28.33;;;;;;;;5180417;27;10372;-69
2022/01/21 07:19:31;;;;;;;;;35.00;32.00;;;;;;;;5179159;27;13946;-69
2022/01/21 07:21:57;;;;;;;;;30.00;25.67;;;;;;;;5180757;27;12462;-71
2022/01/21 07:24:22;;;;;;;;;37.00;33.50;;;;;;;;5180236;27;14228;-70
2022/01/21 07:26:47;;;;;;;;;35.33;31.33;;;;;;;;5180556;27;12472;-72
2022/01/21 07:29:13;;;;;;;;;32.00;26.33;;;;;;;;5161571;27;11639;-71
2022/01/21 07:31:38;;;;;;;;;25.67;25.33;;;;;;;;5180194;27;11594;-71
2022/01/21 07:34:04;;;;;;;;;32.00;28.67;;;;;;;;5177298;27;12238;-70
2022/01/21 07:39:32;;;;;;;;;34.00;26.67;;;;;;;;5180462;27;10302;-69
2022/01/21 07:41:57;;;;;;;;;34.00;27.67;;;;;;;;5182990;27;9653;-69
2022/01/21 07:44:23;;;;;;;;;30.00;26.00;;;;;;;;5183398;27;9621;-72
2022/01/21 07:46:49;;;;;;;;;44.00;34.00;;;;;;;;5183687;27;11368;-68
2022/01/21 07:52:17;;;;;;;;;27.00;27.00;;;;;;;;5180403;27;13057;-69
2022/01/21 07:54:43;;;;;;;;;45.00;40.00;;;;;;;;5183329;27;10177;-69
2022/01/21 07:57:09;;;;;;;;;31.67;28.00;;;;;;;;5182966;27;10703;-70
2022/01/21 08:02:37;;;;;;;;;37.00;35.00;;;;;;;;5180236;27;12295;-69
2022/01/21 08:05:04;;;;;;;;;37.00;33.67;;;;;;;;5183246;27;12745;-70
2022/01/21 08:07:30;;;;;;;;;41.00;33.67;;;;;;;;5182880;27;9565;-72
2022/01/21 08:12:59;;;;;;;;;45.33;38.67;;;;;;;;5180370;27;13171;-77
2022/01/21 08:18:27;;;;;;;;;40.67;37.00;;;;;;;;5180031;27;13150;-75
2022/01/21 08:20:52;;;;;;;;;43.33;37.33;;;;;;;;5163271;27;15097;-76
2022/01/21 08:23:18;;;;;;;;;42.00;37.00;;;;;;;;5163657;27;11813;-75
2022/01/21 08:25:43;;;;;;;;;45.00;38.33;;;;;;;;5183184;27;11422;-74
2022/01/21 08:28:09;;;;;;;;;36.00;30.00;;;;;;;;5184900;27;12442;-75
2022/01/21 08:33:37;;;;;;;;;39.00;37.33;;;;;;;;5183382;27;9746;-76
2022/01/21 08:39:06;;;;;;;;;46.00;37.67;;;;;;;;5183278;27;11283;-77
2022/01/21 08:41:31;;;;;;;;;41.33;37.33;;;;;;;;5186208;27;13262;-75
2022/01/21 08:43:57;;;;;;;;;48.67;42.00;;;;;;;;5186086;27;11378;-76
2022/01/21 08:46:22;;;;;;;;;43.00;39.67;;;;;;;;5186333;27;12761;-77
2022/01/21 08:51:53;;;;;;;;;49.33;42.00;;;;;;;;5185989;27;11321;-76
2022/01/21 08:57:21;;;;;;;;;41.67;37.33;;;;;;;;5183076;27;13143;-75
2022/01/21 09:02:56;;;;;;;;;49.33;39.67;;;;;;;;5183128;27;10327;-76
2022/01/21 09:05:21;;;;;;;;;44.67;37.00;;;;;;;;5185952;27;11745;-79
2022/01/21 09:07:46;;;;;;;;;38.00;38.00;;;;;;;;5185938;27;11640;-79
2022/01/21 09:13:15;;;;;;;;;46.67;34.33;;;;;;;;5182976;27;13345;-73
2022/01/21 09:21:15;;;;;;;;;47.33;38.67;;;;;;;;5183097;27;11680;-72
2022/01/21 09:23:41;;;;;;;;;44.67;38.67;;;;;;;;5166786;27;14634;-72
2022/01/21 09:26:07;;;;;;;;;48.33;37.33;;;;;;;;5185184;27;9530;-68
2022/01/21 09:31:35;;;;;;;;;43.67;38.00;;;;;;;;5182431;27;11361;-72
2022/01/21 09:37:03;;;;;;;;;47.00;38.00;;;;;;;;5182312;27;13115;-72
2022/01/21 09:42:35;;;;;;;;;46.33;39.33;;;;;;;;5182696;27;8800;-70
2022/01/21 09:45:03;;;;;;;;;53.67;40.00;;;;;;;;5185211;27;11987;-71
2022/01/21 09:47:31;;;;;;;;;47.67;39.67;;;;;;;;5184943;27;13700;-70
2022/01/21 09:53:01;;;;;;;;;49.33;40.33;;;;;;;;5182318;27;13154;-71
2022/01/21 09:55:26;;;;;;;;;45.00;37.00;;;;;;;;5184948;27;13392;-70
2022/01/21 09:57:52;;;;;;;;;40.67;32.67;;;;;;;;5185435;27;12863;-72
2022/01/21 10:03:26;;;;;;;;;45.67;34.00;;;;;;;;5182300;27;11310;-67
2022/01/21 10:05:52;;;;;;;;;44.00;35.33;;;;;;;;5184749;27;10369;-68
2022/01/21 10:08:19;;;;;;;;;44.67;36.00;;;;;;;;5185117;27;11623;-68
2022/01/21 10:13:48;;;;;;;;;29.33;27.00;;;;;;;;5181939;27;10320;-67
2022/01/21 10:16:13;;;;;;;;;39.00;35.00;;;;;;;;5165380;27;12758;-67
2022/01/21 10:21:44;;;;;;;;;37.33;33.00;;;;;;;;5183619;27;13263;-69
2022/01/21 10:24:11;;;;;;;;;33.00;29.67;;;;;;;;5183754;27;13657;-70
2022/01/21 10:26:45;;;;;;;;;31.00;26.67;;;;;;;;5184418;27;13722;-68
2022/01/21 10:32:13;;;;;;;;;27.00;27.00;;;;;;;;5181720;27;13189;-68
2022/01/21 10:34:40;;;;;;;;;25.67;19.00;;;;;;;;5184330;27;10413;-70
2022/01/21 10:37:22;;;;;;;;;34.67;27.00;;;;;;;;5183781;27;12095;-68
2022/01/21 10:42:50;;;;;;;;;34.00;27.33;;;;;;;;5181171;27;13154;-71
2022/01/21 10:45:15;;;;;;;;;25.67;21.00;;;;;;;;5184422;27;13290;-73
2022/01/21 10:47:47;;;;;;;;;25.67;22.67;;;;;;;;5183986;27;13784;-69
2022/01/21 10:53:26;;;;;;;;;39.00;30.33;;;;;;;;5180785;27;14106;-70
2022/01/21 10:55:51;;;;;;;;;36.33;30.33;;;;;;;;5183878;27;13507;-72
2022/01/21 13:36:03;;;;;;;;;34.00;30.75;;;;;;;;5146926;27;1427864;-74
2022/01/21 13:38:29;;;;;;;;;38.50;31.75;;;;;;;;5181877;27;22838;-71
2022/01/21 13:40:57;;;;;;;;;34.00;28.25;;;;;;;;5183799;27;11597;-71
2022/01/21 13:43:24;;;;;;;;;32.50;25.50;;;;;;;;5183754;27;12556;-69
2022/01/21 13:46:15;;;;;;;;;38.00;27.25;;;;;;;;5183305;27;11472;-72
2022/01/21 13:48:40;;;;;;;;;32.25;29.00;;;;;;;;5181581;27;12072;-72
2022/01/21 13:51:07;;;;;;;;;31.25;26.75;;;;;;;;5182181;27;11764;-69
2022/01/21 13:53:33;;;;;;;;;30.25;27.75;;;;;;;;5179453;27;11726;-70
2022/01/21 13:56:03;;;;;;;;;39.50;31.25;;;;;;;;5176322;27;11510;-68
2022/01/21 13:58:29;;;;;;;;;31.25;27.75;;;;;;;;5178240;27;11653;-68
2022/01/21 14:01:05;;;;;;;;;38.00;30.33;;;;;;;;5189456;27;11916;-75
2022/01/21 14:03:32;;;;;;;;;40.75;32.50;;;;;;;;5178977;27;15156;-74
2022/01/21 14:06:05;;;;;;;;;43.33;36.00;;;;;;;;5193468;27;13799;-70
2022/01/21 14:08:38;;;;;;;;;66.33;52.00;;;;;;;;5186013;27;11544;-70
2022/01/21 14:11:04;;;;;;;;;40.67;34.33;;;;;;;;5184756;27;10433;-69
2022/01/21 14:13:32;;;;;;;;;32.67;24.67;;;;;;;;5174478;27;15285;-69
2022/01/21 14:15:59;;;;;;;;;36.00;28.50;;;;;;;;5185184;27;13564;-69
2022/01/21 14:18:28;;;;;;;;;31.75;25.50;;;;;;;;5186027;27;12611;-69
2022/01/21 14:21:02;;;;;;;;;27.50;25.00;;;;;;;;5185048;27;11560;-68
2022/01/21 14:23:27;;;;;;;;;32.50;25.75;;;;;;;;5188104;27;13717;-68
2022/01/21 14:25:53;;;;;;;;;28.25;24.25;;;;;;;;5186523;27;13548;-68
2022/01/21 14:30:53;;;;;;;;;27.00;23.75;;;;;;;;5155064;27;1367778;-71
2022/01/21 14:33:18;;;;;;;;;25.25;23.25;;;;;;;;5187728;27;22752;-72
2022/01/21 14:35:46;;;;;;;;;24.50;20.50;;;;;;;;5186246;27;10380;-71
2022/01/21 14:38:12;;;;;;;;;21.75;17.50;;;;;;;;5170927;27;12407;-71
2022/01/21 14:40:39;;;;;;;;;23.75;19.00;;;;;;;;5175627;27;11888;-71
2022/01/21 14:43:10;;;;;;;;;23.25;20.00;;;;;;;;5175381;27;14003;-71
2022/01/21 14:45:38;;;;;;;;;26.50;20.50;;;;;;;;5187586;27;11469;-71
2022/01/21 14:48:18;;;;;;;;;23.50;20.00;;;;;;;;5187300;27;11485;-71
2022/01/21 14:50:45;;;;;;;;;21.25;18.00;;;;;;;;5187157;27;11479;-71
2022/01/21 14:53:10;;;;;;;;;25.75;19.50;;;;;;;;5182631;27;11632;-72
2022/01/21 14:55:38;;;;;;;;;17.25;13.00;;;;;;;;5164231;27;11786;-72
2022/01/21 14:58:12;;;;;;;;;17.00;15.00;;;;;;;;5189781;27;13824;-71
2022/01/21 15:00:39;;;;;;;;;14.75;14.75;;;;;;;;5187574;27;11532;-71
2022/01/21 15:03:11;;;;;;;;;17.50;15.00;;;;;;;;5185692;27;12700;-71
2022/01/21 15:05:37;;;;;;;;;22.50;14.25;;;;;;;;5187635;27;11511;-71
2022/01/21 15:08:03;;;;;;;;;18.75;18.00;;;;;;;;5175665;27;13651;-70
2022/01/21 15:10:34;;;;;;;;;22.25;16.25;;;;;;;;5187001;27;13707;-71
2022/01/21 15:16:08;;;;;;;;;13.00;13.00;;;;;;;;5186244;27;13241;-72
2022/01/21 15:18:34;;;;;;;;;21.75;18.50;;;;;;;;5186639;27;11526;-71
2022/01/21 15:20:59;;;;;;;;;18.50;17.75;;;;;;;;5188529;27;13291;-70
2022/01/21 15:23:24;;;;;;;;;19.25;17.00;;;;;;;;5187021;27;13218;-70
2022/01/21 15:25:50;;;;;;;;;22.25;17.25;;;;;;;;5186931;27;11546;-70
2022/01/21 15:28:15;;;;;;;;;18.00;12.75;;;;;;;;5188179;27;13447;-72
2022/01/21 15:30:40;;;;;;;;;15.00;10.00;;;;;;;;5185469;27;12540;-67
2022/01/21 15:33:06;;;;;;;;;18.25;12.00;;;;;;;;5187621;27;11739;-67
2022/01/21 15:35:31;;;;;;;;;14.50;12.25;;;;;;;;5187747;27;10310;-72
2022/01/21 15:37:56;;;;;;;;;12.50;11.50;;;;;;;;5185362;27;11635;-68
2022/01/21 15:40:22;;;;;;;;;14.25;12.25;;;;;;;;5187635;27;11510;-69
2022/01/21 15:42:47;;;;;;;;;24.25;20.00;;;;;;;;5159830;27;11673;-72
2022/01/21 15:45:14;;;;;;;;;31.67;30.33;;;;;;;;5185019;27;13440;-71
2022/01/21 15:47:39;;;;;;;;;18.50;14.25;;;;;;;;5184292;27;13290;-77
2022/01/21 15:50:05;;;;;;;;;15.25;11.50;;;;;;;;5183480;27;12240;-74
2022/01/21 15:52:31;;;;;;;;;14.50;14.50;;;;;;;;5177094;27;11638;-73
2022/01/21 15:54:57;;;;;;;;;18.75;14.75;;;;;;;;5169544;27;12310;-72
2022/01/21 15:57:23;;;;;;;;;20.00;16.25;;;;;;;;5169584;27;11946;-72
2022/01/21 15:59:48;;;;;;;;;19.75;16.75;;;;;;;;5170567;27;12663;-73
2022/01/21 16:02:13;;;;;;;;;16.50;16.00;;;;;;;;5175480;27;12241;-73
2022/01/21 16:04:39;;;;;;;;;16.00;15.00;;;;;;;;5168981;27;11436;-73
2022/01/21 16:07:04;;;;;;;;;19.67;13.67;;;;;;;;5170790;27;9531;-71
2022/01/21 16:09:30;;;;;;;;;15.50;13.50;;;;;;;;5171849;27;11757;-71
2022/01/21 16:11:55;;;;;;;;;18.67;16.33;;;;;;;;5172496;27;11477;-72
2022/01/21 16:14:21;;;;;;;;;20.00;16.50;;;;;;;;5153552;27;13115;-73
2022/01/21 16:16:47;;;;;;;;;21.25;13.00;;;;;;;;5170150;27;13194;-73
2022/01/21 16:19:13;;;;;;;;;22.00;14.50;;;;;;;;5166030;27;11683;-73
2022/01/21 16:21:39;;;;;;;;;21.67;15.00;;;;;;;;5161985;27;11485;-71
2022/01/21 16:24:05;;;;;;;;;20.75;16.00;;;;;;;;5162822;27;11446;-73
2022/01/21 16:26:30;;;;;;;;;19.50;13.50;;;;;;;;5162572;27;12119;-72
2022/01/21 16:28:56;;;;;;;;;19.75;13.50;;;;;;;;5162479;27;13377;-73
2022/01/21 16:31:21;;;;;;;;;15.67;12.00;;;;;;;;5169318;27;8785;-71
2022/01/21 16:33:50;;;;;;;;;17.67;15.67;;;;;;;;5170183;27;12690;-70
2022/01/21 16:36:16;;;;;;;;;60.33;46.00;;;;;;;;5169249;27;11598;-70
2022/01/21 16:38:42;;;;;;;;;22.00;15.00;;;;;;;;5169058;27;13507;-73
2022/01/21 16:41:07;;;;;;;;;17.67;14.00;;;;;;;;5170540;27;12270;-73
2022/01/21 16:43:32;;;;;;;;;17.33;14.33;;;;;;;;5171424;27;13638;-72
2022/01/21 16:45:58;;;;;;;;;22.00;16.00;;;;;;;;5152840;27;8912;-71
2022/01/21 16:48:24;;;;;;;;;18.00;15.33;;;;;;;;5169585;27;13285;-72
2022/01/21 16:50:49;;;;;;;;;16.00;15.33;;;;;;;;5171684;27;13197;-72
2022/01/21 16:53:14;;;;;;;;;22.33;14.33;;;;;;;;5181783;27;8801;-72
2022/01/21 16:55:40;;;;;;;;;18.67;12.67;;;;;;;;5183088;27;12284;-72
2022/01/21 16:58:05;;;;;;;;;17.33;17.33;;;;;;;;5183107;27;13323;-72
2022/01/21 17:00:31;;;;;;;;;19.67;16.67;;;;;;;;5182033;27;11396;-72
2022/01/21 17:02:57;;;;;;;;;16.67;13.33;;;;;;;;5180539;27;11493;-72
2022/01/21 17:05:23;;;;;;;;;18.00;13.00;;;;;;;;5163122;27;11767;-72
2022/01/21 17:07:50;;;;;;;;;15.00;13.00;;;;;;;;5183150;27;12256;-73
2022/01/21 17:10:15;;;;;;;;;18.00;12.50;;;;;;;;5182831;27;11460;-73
2022/01/21 17:12:41;;;;;;;;;17.33;16.33;;;;;;;;5163803;27;13752;-72
2022/01/21 17:15:08;;;;;;;;;15.33;13.00;;;;;;;;5163002;27;13485;-72
2022/01/21 17:17:33;;;;;;;;;20.75;13.50;;;;;;;;5181600;27;11937;-72
2022/01/21 17:19:59;;;;;;;;;13.67;12.00;;;;;;;;5178180;27;13340;-71
2022/01/21 17:22:25;;;;;;;;;19.00;14.67;;;;;;;;5161838;27;13761;-72
2022/01/21 17:24:50;;;;;;;;;15.50;10.00;;;;;;;;5161936;27;11404;-73
2022/01/21 17:27:17;;;;;;;;;15.00;14.33;;;;;;;;5163542;27;11388;-72
2022/01/21 17:29:43;;;;;;;;;13.33;9.67;;;;;;;;5168053;27;10445;-72
2022/01/21 17:32:09;;;;;;;;;17.33;11.67;;;;;;;;5171667;27;21303;-73
2022/01/21 17:34:34;;;;;;;;;19.33;12.67;;;;;;;;5170443;27;21506;-71
2022/01/21 17:37:00;;;;;;;;;20.67;15.00;;;;;;;;5170428;27;8976;-72
2022/01/21 17:39:25;;;;;;;;;21.00;14.67;;;;;;;;5170425;27;14032;-72
2022/01/21 17:41:51;;;;;;;;;22.67;18.33;;;;;;;;5172922;27;11602;-73
2022/01/21 17:44:19;;;;;;;;;16.67;15.00;;;;;;;;5182872;27;11693;-71
2022/01/21 17:46:45;;;;;;;;;15.00;14.33;;;;;;;;5181549;27;13836;-72
2022/01/21 17:49:12;;;;;;;;;18.33;15.67;;;;;;;;5182409;27;11513;-73
2022/01/21 17:51:38;;;;;;;;;16.33;13.33;;;;;;;;5181697;27;11655;-71
2022/01/21 17:54:04;;;;;;;;;14.67;13.67;;;;;;;;5162956;27;13684;-69
2022/01/21 17:56:29;;;;;;;;;15.25;10.00;;;;;;;;5175193;27;11359;-71
2022/01/21 17:58:54;;;;;;;;;11.67;11.67;;;;;;;;5172187;27;11382;-70
2022/01/21 18:01:20;;;;;;;;;14.25;11.50;;;;;;;;5181948;27;11885;-71
2022/01/21 18:03:45;;;;;;;;;15.00;8.33;;;;;;;;5182215;27;11527;-70
2022/01/21 18:06:10;;;;;;;;;12.33;12.33;;;;;;;;5163113;27;21853;-71
2022/01/21 18:08:38;;;;;;;;;15.00;10.33;;;;;;;;5162896;27;23786;-71
2022/01/21 18:11:09;;;;;;;;;11.25;8.75;;;;;;;;5161183;27;10833;-71
2022/01/21 18:13:35;;;;;;;;;15.33;14.00;;;;;;;;5174917;27;22778;-71
2022/01/21 18:16:01;;;;;;;;;15.00;12.00;;;;;;;;5151732;27;21915;-70
2022/01/21 18:18:27;;;;;;;;;17.33;12.67;;;;;;;;5165578;27;9535;-71
2022/01/21 18:20:52;;;;;;;;;15.00;14.00;;;;;;;;5160795;27;11606;-71
2022/01/21 18:23:18;;;;;;;;;16.00;11.00;;;;;;;;5161240;27;11853;-70
2022/01/21 18:25:43;;;;;;;;;12.00;11.00;;;;;;;;5160500;27;8910;-72
2022/01/21 18:28:09;;;;;;;;;14.00;11.00;;;;;;;;5168553;27;8842;-73
2022/01/21 18:30:35;;;;;;;;;18.00;15.67;;;;;;;;5169879;27;8930;-72
2022/01/21 18:33:00;;;;;;;;;12.00;11.00;;;;;;;;5168197;27;11669;-73
2022/01/21 18:35:26;;;;;;;;;12.00;11.00;;;;;;;;5169204;27;12716;-71
2022/01/21 18:37:52;;;;;;;;;10.33;9.00;;;;;;;;5151359;27;8882;-74
2022/01/21 18:40:17;;;;;;;;;16.67;12.00;;;;;;;;5150060;27;21910;-73
2022/01/21 18:42:44;;;;;;;;;17.33;14.00;;;;;;;;5160652;27;22821;-72
2022/01/21 18:45:16;;;;;;;;;17.67;14.67;;;;;;;;5160708;27;10581;-72
2022/01/21 18:47:42;;;;;;;;;17.00;15.33;;;;;;;;5160831;27;8776;-72
2022/01/21 18:50:13;;;;;;;;;19.00;15.67;;;;;;;;5159997;27;11549;-72
2022/01/21 18:52:40;;;;;;;;;16.00;11.33;;;;;;;;5158732;27;11930;-72
2022/01/21 18:55:06;;;;;;;;;12.67;11.33;;;;;;;;5158576;27;11447;-71
2022/01/21 18:57:32;;;;;;;;;14.33;11.67;;;;;;;;5159084;27;9488;-72
2022/01/21 18:59:57;;;;;;;;;18.33;13.33;;;;;;;;5159731;27;11649;-72